Terminal Aerodrome Forecast
Issued by NWS Charleston, WV

Current Version | Previous Version | Graphics & Text | Print | Product List | Glossary On
Versions: 1 2 3 4 5 6 7 8 9 10 11 12 13 14 15 16 17 18 19 20 21 22 23 24 25 26
000
FTUS41 KRLX 150900 AAC
TAFCRW
TAF AMD
KCRW 150959Z 1510/1606 29012G22KT 6SM -SHRA OVC013
      TEMPO 1510/1512 OVC006
     FM151200 30012G22KT 5SM -SHRA OVC008
     FM151400 31011G19KT P6SM OVC008
     FM151700 32009G16KT P6SM OVC014
     FM151900 32010KT P6SM BKN018
     FM160000 33010G15KT P6SM SCT023
     FM160300 31007KT P6SM FEW250=

USA.gov is the U.S. government's official web portal to all federal, state and local government web resources and services.